sensor_id;sensor_type;location;lat;lon;timestamp;temperature;humidity
83102;SHT31;72973;51.784;4.660;2023-11-21T00:00:20;8.25;83.30
83102;SHT31;72973;51.784;4.660;2023-11-21T00:02:49;8.29;83.26
83102;SHT31;72973;51.784;4.660;2023-11-21T00:05:17;8.34;83.26
83102;SHT31;72973;51.784;4.660;2023-11-21T00:07:45;8.40;83.40
83102;SHT31;72973;51.784;4.660;2023-11-21T00:10:13;8.44;83.44
83102;SHT31;72973;51.784;4.660;2023-11-21T00:12:43;8.47;83.20
83102;SHT31;72973;51.784;4.660;2023-11-21T00:15:10;8.47;82.93
83102;SHT31;72973;51.784;4.660;2023-11-21T00:17:40;8.43;82.96
83102;SHT31;72973;51.784;4.660;2023-11-21T00:20:08;8.43;82.50
83102;SHT31;72973;51.784;4.660;2023-11-21T00:22:41;8.36;82.40
83102;SHT31;72973;51.784;4.660;2023-11-21T00:25:10;8.28;82.21
83102;SHT31;72973;51.784;4.660;2023-11-21T00:27:37;8.23;82.11
83102;SHT31;72973;51.784;4.660;2023-11-21T00:32:32;8.03;83.24
83102;SHT31;72973;51.784;4.660;2023-11-21T00:34:59;8.07;82.83
83102;SHT31;72973;51.784;4.660;2023-11-21T00:37:28;8.09;82.80
83102;SHT31;72973;51.784;4.660;2023-11-21T00:39:57;8.02;82.73
83102;SHT31;72973;51.784;4.660;2023-11-21T00:42:24;7.98;82.36
83102;SHT31;72973;51.784;4.660;2023-11-21T00:44:51;7.91;82.38
83102;SHT31;72973;51.784;4.660;2023-11-21T00:47:19;7.93;82.67
83102;SHT31;72973;51.784;4.660;2023-11-21T00:49:46;7.92;83.21
83102;SHT31;72973;51.784;4.660;2023-11-21T00:52:15;8.05;83.65
83102;SHT31;72973;51.784;4.660;2023-11-21T00:54:45;8.14;83.88
83102;SHT31;72973;51.784;4.660;2023-11-21T00:57:18;8.28;84.01
83102;SHT31;72973;51.784;4.660;2023-11-21T00:59:47;8.43;84.39
83102;SHT31;72973;51.784;4.660;2023-11-21T01:02:15;8.56;84.46
83102;SHT31;72973;51.784;4.660;2023-11-21T01:04:44;8.70;84.36
83102;SHT31;72973;51.784;4.660;2023-11-21T01:07:13;8.97;84.00
83102;SHT31;72973;51.784;4.660;2023-11-21T01:09:42;8.97;84.23
83102;SHT31;72973;51.784;4.660;2023-11-21T01:12:14;9.06;84.17
83102;SHT31;72973;51.784;4.660;2023-11-21T01:14:42;9.23;84.36
83102;SHT31;72973;51.784;4.660;2023-11-21T01:17:11;9.33;84.32
83102;SHT31;72973;51.784;4.660;2023-11-21T01:19:39;9.47;84.24
83102;SHT31;72973;51.784;4.660;2023-11-21T01:22:09;9.50;84.10
83102;SHT31;72973;51.784;4.660;2023-11-21T01:24:40;9.53;83.90
83102;SHT31;72973;51.784;4.660;2023-11-21T01:27:12;9.54;83.87
83102;SHT31;72973;51.784;4.660;2023-11-21T01:29:40;9.57;83.80
83102;SHT31;72973;51.784;4.660;2023-11-21T01:32:09;9.63;83.65
83102;SHT31;72973;51.784;4.660;2023-11-21T01:34:37;9.66;83.44
83102;SHT31;72973;51.784;4.660;2023-11-21T01:37:05;9.69;83.49
83102;SHT31;72973;51.784;4.660;2023-11-21T01:39:33;9.71;83.55
83102;SHT31;72973;51.784;4.660;2023-11-21T01:42:06;9.71;83.67
83102;SHT31;72973;51.784;4.660;2023-11-21T01:44:40;9.74;83.63
83102;SHT31;72973;51.784;4.660;2023-11-21T01:47:09;9.78;83.65
83102;SHT31;72973;51.784;4.660;2023-11-21T01:49:39;9.81;83.58
83102;SHT31;72973;51.784;4.660;2023-11-21T01:54:33;9.93;83.70
83102;SHT31;72973;51.784;4.660;2023-11-21T01:57:01;9.98;83.55
83102;SHT31;72973;51.784;4.660;2023-11-21T01:59:40;10.04;83.51
83102;SHT31;72973;51.784;4.660;2023-11-21T02:02:18;10.06;83.32
83102;SHT31;72973;51.784;4.660;2023-11-21T02:04:46;10.05;83.38
83102;SHT31;72973;51.784;4.660;2023-11-21T02:07:14;10.05;83.68
83102;SHT31;72973;51.784;4.660;2023-11-21T02:09:43;10.09;83.61
83102;SHT31;72973;51.784;4.660;2023-11-21T02:12:13;10.02;83.82
83102;SHT31;72973;51.784;4.660;2023-11-21T02:14:47;10.15;83.54
83102;SHT31;72973;51.784;4.660;2023-11-21T02:17:16;10.11;83.39
83102;SHT31;72973;51.784;4.660;2023-11-21T02:19:46;10.21;83.26
83102;SHT31;72973;51.784;4.660;2023-11-21T02:22:17;10.25;83.23
83102;SHT31;72973;51.784;4.660;2023-11-21T02:24:46;10.26;83.26
83102;SHT31;72973;51.784;4.660;2023-11-21T02:27:17;10.26;83.21
83102;SHT31;72973;51.784;4.660;2023-11-21T02:29:50;10.22;83.48
83102;SHT31;72973;51.784;4.660;2023-11-21T02:32:19;10.28;83.56
83102;SHT31;72973;51.784;4.660;2023-11-21T02:34:49;10.26;83.84
83102;SHT31;72973;51.784;4.660;2023-11-21T02:37:17;10.31;83.68
83102;SHT31;72973;51.784;4.660;2023-11-21T02:39:46;10.33;83.25
83102;SHT31;72973;51.784;4.660;2023-11-21T02:42:15;10.35;83.00
83102;SHT31;72973;51.784;4.660;2023-11-21T02:44:44;10.31;83.17
83102;SHT31;72973;51.784;4.660;2023-11-21T02:47:12;10.31;83.23
83102;SHT31;72973;51.784;4.660;2023-11-21T02:49:39;10.29;83.47
83102;SHT31;72973;51.784;4.660;2023-11-21T02:52:08;10.33;83.53
83102;SHT31;72973;51.784;4.660;2023-11-21T02:54:37;10.38;83.39
83102;SHT31;72973;51.784;4.660;2023-11-21T02:57:06;10.38;83.26
83102;SHT31;72973;51.784;4.660;2023-11-21T02:59:37;10.33;83.34
83102;SHT31;72973;51.784;4.660;2023-11-21T03:04:33;10.43;83.18
83102;SHT31;72973;51.784;4.660;2023-11-21T03:07:04;10.49;82.94
83102;SHT31;72973;51.784;4.660;2023-11-21T03:09:34;10.48;83.07
83102;SHT31;72973;51.784;4.660;2023-11-21T03:12:03;10.42;83.22
83102;SHT31;72973;51.784;4.660;2023-11-21T03:14:32;10.45;83.27
83102;SHT31;72973;51.784;4.660;2023-11-21T03:17:00;10.38;83.58
83102;SHT31;72973;51.784;4.660;2023-11-21T03:19:29;10.42;83.64
83102;SHT31;72973;51.784;4.660;2023-11-21T03:21:57;10.45;83.53
83102;SHT31;72973;51.784;4.660;2023-11-21T03:24:26;10.46;83.31
83102;SHT31;72973;51.784;4.660;2023-11-21T03:26:55;10.46;83.21
83102;SHT31;72973;51.784;4.660;2023-11-21T03:29:26;10.48;83.42
83102;SHT31;72973;51.784;4.660;2023-11-21T03:31:56;10.49;83.27
83102;SHT31;72973;51.784;4.660;2023-11-21T03:34:29;10.52;83.52
83102;SHT31;72973;51.784;4.660;2023-11-21T03:36:59;10.57;83.56
83102;SHT31;72973;51.784;4.660;2023-11-21T03:39:27;10.61;83.43
83102;SHT31;72973;51.784;4.660;2023-11-21T03:41:58;10.61;83.35
83102;SHT31;72973;51.784;4.660;2023-11-21T03:44:25;10.63;83.30
83102;SHT31;72973;51.784;4.660;2023-11-21T03:46:54;10.67;83.39
83102;SHT31;72973;51.784;4.660;2023-11-21T03:49:22;10.67;83.36
83102;SHT31;72973;51.784;4.660;2023-11-21T03:51:49;10.71;83.48
83102;SHT31;72973;51.784;4.660;2023-11-21T03:54:18;10.70;83.69
83102;SHT31;72973;51.784;4.660;2023-11-21T03:56:46;10.73;83.66
83102;SHT31;72973;51.784;4.660;2023-11-21T03:59:15;10.81;83.81
83102;SHT31;72973;51.784;4.660;2023-11-21T04:01:43;10.87;83.74
83102;SHT31;72973;51.784;4.660;2023-11-21T04:04:12;10.91;83.81
83102;SHT31;72973;51.784;4.660;2023-11-21T04:06:41;10.94;83.47
83102;SHT31;72973;51.784;4.660;2023-11-21T04:09:12;10.91;83.29
83102;SHT31;72973;51.784;4.660;2023-11-21T04:11:41;10.94;83.16
83102;SHT31;72973;51.784;4.660;2023-11-21T04:14:11;10.90;83.54
83102;SHT31;72973;51.784;4.660;2023-11-21T04:16:41;10.93;83.50
83102;SHT31;72973;51.784;4.660;2023-11-21T04:19:11;11.00;83.53
83102;SHT31;72973;51.784;4.660;2023-11-21T04:21:43;11.06;83.46
83102;SHT31;72973;51.784;4.660;2023-11-21T04:24:11;11.07;83.67
83102;SHT31;72973;51.784;4.660;2023-11-21T04:26:40;11.12;83.87
83102;SHT31;72973;51.784;4.660;2023-11-21T04:29:10;11.19;83.85
83102;SHT31;72973;51.784;4.660;2023-11-21T04:31:38;11.29;83.91
83102;SHT31;72973;51.784;4.660;2023-11-21T04:34:06;11.25;84.10
83102;SHT31;72973;51.784;4.660;2023-11-21T04:36:35;11.29;83.89
83102;SHT31;72973;51.784;4.660;2023-11-21T04:39:03;11.49;83.87
83102;SHT31;72973;51.784;4.660;2023-11-21T04:41:32;11.42;84.42
83102;SHT31;72973;51.784;4.660;2023-11-21T04:43:58;11.51;84.13
83102;SHT31;72973;51.784;4.660;2023-11-21T04:46:28;11.51;84.47
83102;SHT31;72973;51.784;4.660;2023-11-21T04:48:58;11.45;84.76
83102;SHT31;72973;51.784;4.660;2023-11-21T04:51:27;11.46;84.73
83102;SHT31;72973;51.784;4.660;2023-11-21T04:53:56;11.49;84.61
83102;SHT31;72973;51.784;4.660;2023-11-21T04:56:23;11.59;84.24
83102;SHT31;72973;51.784;4.660;2023-11-21T04:58:53;11.54;84.47
83102;SHT31;72973;51.784;4.660;2023-11-21T05:01:23;11.52;84.26
83102;SHT31;72973;51.784;4.660;2023-11-21T05:03:51;11.49;84.14
83102;SHT31;72973;51.784;4.660;2023-11-21T05:06:21;11.54;83.92
83102;SHT31;72973;51.784;4.660;2023-11-21T05:08:49;11.46;84.37
83102;SHT31;72973;51.784;4.660;2023-11-21T05:11:30;11.42;84.38
83102;SHT31;72973;51.784;4.660;2023-11-21T05:14:01;11.49;84.37
83102;SHT31;72973;51.784;4.660;2023-11-21T05:16:30;11.55;84.21
83102;SHT31;72973;51.784;4.660;2023-11-21T05:19:00;11.61;83.92
83102;SHT31;72973;51.784;4.660;2023-11-21T05:21:28;11.55;83.94
83102;SHT31;72973;51.784;4.660;2023-11-21T05:24:01;11.51;84.32
83102;SHT31;72973;51.784;4.660;2023-11-21T05:26:29;11.46;84.58
83102;SHT31;72973;51.784;4.660;2023-11-21T05:28:57;11.54;84.26
83102;SHT31;72973;51.784;4.660;2023-11-21T05:31:28;11.61;83.91
83102;SHT31;72973;51.784;4.660;2023-11-21T05:33:57;11.55;84.19
83102;SHT31;72973;51.784;4.660;2023-11-21T05:36:24;11.45;84.52
83102;SHT31;72973;51.784;4.660;2023-11-21T05:38:53;11.51;84.49
83102;SHT31;72973;51.784;4.660;2023-11-21T05:41:23;11.52;84.63
83102;SHT31;72973;51.784;4.660;2023-11-21T05:43:51;11.55;84.71
83102;SHT31;72973;51.784;4.660;2023-11-21T05:46:18;11.52;84.77
83102;SHT31;72973;51.784;4.660;2023-11-21T05:48:50;11.54;84.79
83102;SHT31;72973;51.784;4.660;2023-11-21T05:51:18;11.56;84.79
83102;SHT31;72973;51.784;4.660;2023-11-21T05:53:47;11.61;84.77
83102;SHT31;72973;51.784;4.660;2023-11-21T05:56:15;11.69;84.76
83102;SHT31;72973;51.784;4.660;2023-11-21T05:58:44;11.73;84.71
83102;SHT31;72973;51.784;4.660;2023-11-21T06:01:16;11.79;84.41
83102;SHT31;72973;51.784;4.660;2023-11-21T06:03:45;11.75;84.16
83102;SHT31;72973;51.784;4.660;2023-11-21T06:06:13;11.76;84.21
83102;SHT31;72973;51.784;4.660;2023-11-21T06:08:42;11.69;84.17
83102;SHT31;72973;51.784;4.660;2023-11-21T06:11:11;11.84;83.97
83102;SHT31;72973;51.784;4.660;2023-11-21T06:13:40;11.87;83.92
83102;SHT31;72973;51.784;4.660;2023-11-21T06:16:09;11.83;84.05
83102;SHT31;72973;51.784;4.660;2023-11-21T06:18:37;11.93;83.65
83102;SHT31;72973;51.784;4.660;2023-11-21T06:23:33;11.79;83.80
83102;SHT31;72973;51.784;4.660;2023-11-21T06:26:01;11.67;83.93
83102;SHT31;72973;51.784;4.660;2023-11-21T06:28:29;11.80;83.62
83102;SHT31;72973;51.784;4.660;2023-11-21T06:30:57;11.76;83.44
83102;SHT31;72973;51.784;4.660;2023-11-21T06:33:32;11.80;83.23
83102;SHT31;72973;51.784;4.660;2023-11-21T06:36:00;11.61;83.61
83102;SHT31;72973;51.784;4.660;2023-11-21T06:38:34;11.49;83.81
83102;SHT31;72973;51.784;4.660;2023-11-21T06:41:03;11.46;84.19
83102;SHT31;72973;51.784;4.660;2023-11-21T06:43:33;11.56;84.24
83102;SHT31;72973;51.784;4.660;2023-11-21T06:46:01;11.51;84.47
83102;SHT31;72973;51.784;4.660;2023-11-21T06:48:29;11.54;84.59
83102;SHT31;72973;51.784;4.660;2023-11-21T06:50:56;11.49;84.58
83102;SHT31;72973;51.784;4.660;2023-11-21T06:53:26;11.61;84.50
83102;SHT31;72973;51.784;4.660;2023-11-21T06:55:58;11.62;84.48
83102;SHT31;72973;51.784;4.660;2023-11-21T06:58:26;11.59;84.76
83102;SHT31;72973;51.784;4.660;2023-11-21T07:00:54;11.69;84.56
83102;SHT31;72973;51.784;4.660;2023-11-21T07:03:22;11.73;84.39
83102;SHT31;72973;51.784;4.660;2023-11-21T07:05:52;11.70;84.51
83102;SHT31;72973;51.784;4.660;2023-11-21T07:08:21;11.67;84.49
83102;SHT31;72973;51.784;4.660;2023-11-21T07:10:50;11.58;84.42
83102;SHT31;72973;51.784;4.660;2023-11-21T07:13:18;11.54;83.95
83102;SHT31;72973;51.784;4.660;2023-11-21T07:15:49;11.54;83.29
83102;SHT31;72973;51.784;4.660;2023-11-21T07:18:17;11.29;83.01
83102;SHT31;72973;51.784;4.660;2023-11-21T07:20:46;11.15;82.77
83102;SHT31;72973;51.784;4.660;2023-11-21T07:23:13;11.03;83.33
83102;SHT31;72973;51.784;4.660;2023-11-21T07:25:42;10.97;83.83
83102;SHT31;72973;51.784;4.660;2023-11-21T07:28:11;11.06;84.04
83102;SHT31;72973;51.784;4.660;2023-11-21T07:30:39;11.07;84.63
83102;SHT31;72973;51.784;4.660;2023-11-21T07:33:06;11.18;84.79
83102;SHT31;72973;51.784;4.660;2023-11-21T07:35:36;11.28;84.97
83102;SHT31;72973;51.784;4.660;2023-11-21T07:40:31;11.39;84.78
83102;SHT31;72973;51.784;4.660;2023-11-21T07:43:00;11.34;85.13
83102;SHT31;72973;51.784;4.660;2023-11-21T07:45:27;11.46;85.03
83102;SHT31;72973;51.784;4.660;2023-11-21T07:47:59;11.46;85.10
83102;SHT31;72973;51.784;4.660;2023-11-21T07:50:28;11.51;85.03
83102;SHT31;72973;51.784;4.660;2023-11-21T07:52:55;11.51;85.08
83102;SHT31;72973;51.784;4.660;2023-11-21T07:55:24;11.58;85.02
83102;SHT31;72973;51.784;4.660;2023-11-21T07:57:53;11.69;84.65
83102;SHT31;72973;51.784;4.660;2023-11-21T08:00:22;11.54;84.89
83102;SHT31;72973;51.784;4.660;2023-11-21T08:02:53;11.63;85.11
83102;SHT31;72973;51.784;4.660;2023-11-21T08:05:21;11.75;85.06
83102;SHT31;72973;51.784;4.660;2023-11-21T08:07:50;11.80;84.95
83102;SHT31;72973;51.784;4.660;2023-11-21T08:10:19;11.86;84.72
83102;SHT31;72973;51.784;4.660;2023-11-21T08:12:48;11.84;84.77
83102;SHT31;72973;51.784;4.660;2023-11-21T08:15:22;11.91;84.53
83102;SHT31;72973;51.784;4.660;2023-11-21T08:17:50;11.95;84.27
83102;SHT31;72973;51.784;4.660;2023-11-21T08:20:18;11.97;84.12
83102;SHT31;72973;51.784;4.660;2023-11-21T08:22:47;12.01;84.20
83102;SHT31;72973;51.784;4.660;2023-11-21T08:25:15;12.03;84.07
83102;SHT31;72973;51.784;4.660;2023-11-21T08:27:46;12.11;84.00
83102;SHT31;72973;51.784;4.660;2023-11-21T08:30:14;12.13;83.64
83102;SHT31;72973;51.784;4.660;2023-11-21T08:32:46;12.14;83.85
83102;SHT31;72973;51.784;4.660;2023-11-21T08:35:13;12.10;83.55
83102;SHT31;72973;51.784;4.660;2023-11-21T08:37:41;12.05;83.73
83102;SHT31;72973;51.784;4.660;2023-11-21T08:40:09;12.08;83.82
83102;SHT31;72973;51.784;4.660;2023-11-21T08:42:44;12.03;83.93
83102;SHT31;72973;51.784;4.660;2023-11-21T08:45:12;12.08;84.06
83102;SHT31;72973;51.784;4.660;2023-11-21T08:47:43;12.08;84.11
83102;SHT31;72973;51.784;4.660;2023-11-21T08:50:11;12.04;83.92
83102;SHT31;72973;51.784;4.660;2023-11-21T08:52:44;12.08;84.30
83102;SHT31;72973;51.784;4.660;2023-11-21T08:55:13;12.05;83.98
83102;SHT31;72973;51.784;4.660;2023-11-21T08:57:43;12.08;84.24
83102;SHT31;72973;51.784;4.660;2023-11-21T09:00:12;12.24;83.60
83102;SHT31;72973;51.784;4.660;2023-11-21T09:02:49;12.23;83.96
83102;SHT31;72973;51.784;4.660;2023-11-21T09:05:18;12.21;84.03
83102;SHT31;72973;51.784;4.660;2023-11-21T09:07:49;12.24;83.86
83102;SHT31;72973;51.784;4.660;2023-11-21T09:10:19;12.28;84.00
83102;SHT31;72973;51.784;4.660;2023-11-21T09:12:49;12.30;83.93
83102;SHT31;72973;51.784;4.660;2023-11-21T09:15:20;12.31;84.26
83102;SHT31;72973;51.784;4.660;2023-11-21T09:17:48;12.37;83.79
83102;SHT31;72973;51.784;4.660;2023-11-21T09:20:17;12.34;84.37
83102;SHT31;72973;51.784;4.660;2023-11-21T09:22:45;12.61;84.12
83102;SHT31;72973;51.784;4.660;2023-11-21T09:25:16;12.70;83.72
83102;SHT31;72973;51.784;4.660;2023-11-21T09:27:45;12.78;83.25
83102;SHT31;72973;51.784;4.660;2023-11-21T09:30:14;12.82;84.10
83102;SHT31;72973;51.784;4.660;2023-11-21T09:32:43;12.96;83.49
83102;SHT31;72973;51.784;4.660;2023-11-21T09:35:14;12.90;83.57
83102;SHT31;72973;51.784;4.660;2023-11-21T09:37:45;12.80;83.67
83102;SHT31;72973;51.784;4.660;2023-11-21T09:40:12;12.72;84.17
83102;SHT31;72973;51.784;4.660;2023-11-21T09:42:53;12.75;84.07
83102;SHT31;72973;51.784;4.660;2023-11-21T09:45:29;12.73;83.86
83102;SHT31;72973;51.784;4.660;2023-11-21T09:48:00;12.61;84.04
83102;SHT31;72973;51.784;4.660;2023-11-21T09:50:35;12.45;84.58
83102;SHT31;72973;51.784;4.660;2023-11-21T09:55:34;12.45;84.42
83102;SHT31;72973;51.784;4.660;2023-11-21T09:58:09;12.44;84.58
83102;SHT31;72973;51.784;4.660;2023-11-21T10:00:55;12.38;85.00
83102;SHT31;72973;51.784;4.660;2023-11-21T10:03:26;12.51;84.78
83102;SHT31;72973;51.784;4.660;2023-11-21T10:05:57;12.48;84.31
83102;SHT31;72973;51.784;4.660;2023-11-21T10:08:32;12.56;84.05
83102;SHT31;72973;51.784;4.660;2023-11-21T10:11:04;12.68;83.77
83102;SHT31;72973;51.784;4.660;2023-11-21T10:13:39;12.75;84.29
83102;SHT31;72973;51.784;4.660;2023-11-21T10:16:14;12.92;83.48
83102;SHT31;72973;51.784;4.660;2023-11-21T10:18:45;12.96;83.01
83102;SHT31;72973;51.784;4.660;2023-11-21T10:21:21;13.09;82.84
83102;SHT31;72973;51.784;4.660;2023-11-21T10:23:56;12.99;82.56
83102;SHT31;72973;51.784;4.660;2023-11-21T10:26:28;13.10;82.46
83102;SHT31;72973;51.784;4.660;2023-11-21T10:29:01;13.14;81.77
83102;SHT31;72973;51.784;4.660;2023-11-21T10:31:35;13.14;81.86
83102;SHT31;72973;51.784;4.660;2023-11-21T10:34:17;12.90;81.43
83102;SHT31;72973;51.784;4.660;2023-11-21T10:36:47;12.89;82.38
83102;SHT31;72973;51.784;4.660;2023-11-21T10:39:22;12.88;82.19
83102;SHT31;72973;51.784;4.660;2023-11-21T10:41:52;12.79;82.12
83102;SHT31;72973;51.784;4.660;2023-11-21T10:44:21;12.78;83.27
83102;SHT31;72973;51.784;4.660;2023-11-21T10:46:55;12.86;83.70
83102;SHT31;72973;51.784;4.660;2023-11-21T10:49:30;12.76;82.70
83102;SHT31;72973;51.784;4.660;2023-11-21T10:52:03;12.79;83.15
83102;SHT31;72973;51.784;4.660;2023-11-21T10:54:31;12.70;83.18
83102;SHT31;72973;51.784;4.660;2023-11-21T10:57:11;12.72;82.59
83102;SHT31;72973;51.784;4.660;2023-11-21T10:59:47;12.63;82.78
83102;SHT31;72973;51.784;4.660;2023-11-21T11:02:23;12.52;82.13
83102;SHT31;72973;51.784;4.660;2023-11-21T11:04:56;12.44;82.52
83102;SHT31;72973;51.784;4.660;2023-11-21T11:07:27;12.45;82.83
83102;SHT31;72973;51.784;4.660;2023-11-21T11:09:55;12.46;81.65
83102;SHT31;72973;51.784;4.660;2023-11-21T11:12:22;12.40;82.20
83102;SHT31;72973;51.784;4.660;2023-11-21T11:14:51;12.38;81.56
83102;SHT31;72973;51.784;4.660;2023-11-21T11:17:25;12.41;82.24
83102;SHT31;72973;51.784;4.660;2023-11-21T11:19:54;12.45;81.70
83102;SHT31;72973;51.784;4.660;2023-11-21T11:28:12;12.28;82.40
83102;SHT31;72973;51.784;4.660;2023-11-21T11:33:49;12.28;81.95
83102;SHT31;72973;51.784;4.660;2023-11-21T11:36:41;12.20;81.63
83102;SHT31;72973;51.784;4.660;2023-11-21T11:39:36;12.17;82.36
83102;SHT31;72973;51.784;4.660;2023-11-21T11:42:17;12.16;81.71
83102;SHT31;72973;51.784;4.660;2023-11-21T11:44:49;12.07;81.88
83102;SHT31;72973;51.784;4.660;2023-11-21T11:47:34;12.03;82.38
83102;SHT31;72973;51.784;4.660;2023-11-21T11:50:10;12.08;82.76
83102;SHT31;72973;51.784;4.660;2023-11-21T11:52:51;12.13;82.61
83102;SHT31;72973;51.784;4.660;2023-11-21T11:55:29;12.23;82.36
83102;SHT31;72973;51.784;4.660;2023-11-21T11:58:01;12.16;82.33
83102;SHT31;72973;51.784;4.660;2023-11-21T12:00:36;12.13;82.55
83102;SHT31;72973;51.784;4.660;2023-11-21T12:05:38;12.10;82.54
83102;SHT31;72973;51.784;4.660;2023-11-21T12:08:09;12.04;82.57
83102;SHT31;72973;51.784;4.660;2023-11-21T12:10:39;12.04;83.04
83102;SHT31;72973;51.784;4.660;2023-11-21T12:13:07;12.04;83.20
83102;SHT31;72973;51.784;4.660;2023-11-21T12:15:39;11.98;83.66
83102;SHT31;72973;51.784;4.660;2023-11-21T12:18:09;12.07;83.34
83102;SHT31;72973;51.784;4.660;2023-11-21T12:20:38;12.05;82.84
83102;SHT31;72973;51.784;4.660;2023-11-21T12:23:10;12.13;83.13
83102;SHT31;72973;51.784;4.660;2023-11-21T12:25:40;12.07;82.90
83102;SHT31;72973;51.784;4.660;2023-11-21T12:30:42;12.03;83.57
83102;SHT31;72973;51.784;4.660;2023-11-21T12:33:12;12.08;83.20
83102;SHT31;72973;51.784;4.660;2023-11-21T12:35:46;12.05;83.01
83102;SHT31;72973;51.784;4.660;2023-11-21T12:38:15;12.07;83.23
83102;SHT31;72973;51.784;4.660;2023-11-21T12:40:45;12.08;82.83
83102;SHT31;72973;51.784;4.660;2023-11-21T12:43:13;11.98;83.03
83102;SHT31;72973;51.784;4.660;2023-11-21T12:45:41;12.01;83.08
83102;SHT31;72973;51.784;4.660;2023-11-21T12:48:08;11.93;83.11
83102;SHT31;72973;51.784;4.660;2023-11-21T12:50:39;11.95;83.60
83102;SHT31;72973;51.784;4.660;2023-11-21T12:53:14;11.97;83.53
83102;SHT31;72973;51.784;4.660;2023-11-21T12:55:47;12.00;83.23
83102;SHT31;72973;51.784;4.660;2023-11-21T12:58:22;12.04;83.15
83102;SHT31;72973;51.784;4.660;2023-11-21T13:01:14;11.98;83.50
83102;SHT31;72973;51.784;4.660;2023-11-21T13:03:48;11.97;83.26
83102;SHT31;72973;51.784;4.660;2023-11-21T13:06:19;12.04;83.43
83102;SHT31;72973;51.784;4.660;2023-11-21T13:08:54;12.07;83.19
83102;SHT31;72973;51.784;4.660;2023-11-21T13:11:25;12.11;82.73
83102;SHT31;72973;51.784;4.660;2023-11-21T13:13:56;12.14;82.99
83102;SHT31;72973;51.784;4.660;2023-11-21T13:16:24;12.23;82.37
83102;SHT31;72973;51.784;4.660;2023-11-21T13:18:54;12.24;82.22
83102;SHT31;72973;51.784;4.660;2023-11-21T13:21:23;12.11;82.90
83102;SHT31;72973;51.784;4.660;2023-11-21T13:23:51;12.17;82.67
83102;SHT31;72973;51.784;4.660;2023-11-21T13:26:22;12.21;82.35
83102;SHT31;72973;51.784;4.660;2023-11-21T13:28:54;12.24;82.69
83102;SHT31;72973;51.784;4.660;2023-11-21T13:31:23;12.18;82.58
83102;SHT31;72973;51.784;4.660;2023-11-21T13:33:58;12.16;82.65
83102;SHT31;72973;51.784;4.660;2023-11-21T13:36:36;12.03;82.52
83102;SHT31;72973;51.784;4.660;2023-11-21T13:39:05;12.04;82.65
83102;SHT31;72973;51.784;4.660;2023-11-21T13:41:39;12.10;82.02
83102;SHT31;72973;51.784;4.660;2023-11-21T13:44:07;12.16;81.87
83102;SHT31;72973;51.784;4.660;2023-11-21T13:49:31;12.10;81.74
83102;SHT31;72973;51.784;4.660;2023-11-21T13:54:32;12.00;82.18
83102;SHT31;72973;51.784;4.660;2023-11-21T13:57:01;12.01;82.69
83102;SHT31;72973;51.784;4.660;2023-11-21T13:59:31;12.10;82.48
83102;SHT31;72973;51.784;4.660;2023-11-21T14:01:59;12.11;82.34
83102;SHT31;72973;51.784;4.660;2023-11-21T14:04:28;12.14;82.16
83102;SHT31;72973;51.784;4.660;2023-11-21T14:07:23;12.14;82.12
83102;SHT31;72973;51.784;4.660;2023-11-21T14:10:04;12.18;81.73
83102;SHT31;72973;51.784;4.660;2023-11-21T14:12:42;12.11;81.63
83102;SHT31;72973;51.784;4.660;2023-11-21T14:15:11;12.05;82.20
83102;SHT31;72973;51.784;4.660;2023-11-21T14:17:47;12.01;82.15
83102;SHT31;72973;51.784;4.660;2023-11-21T14:20:16;11.95;82.01
83102;SHT31;72973;51.784;4.660;2023-11-21T14:22:46;11.93;82.38
83102;SHT31;72973;51.784;4.660;2023-11-21T14:25:15;12.03;82.00
83102;SHT31;72973;51.784;4.660;2023-11-21T14:27:47;12.03;81.85
83102;SHT31;72973;51.784;4.660;2023-11-21T14:30:15;12.00;81.61
83102;SHT31;72973;51.784;4.660;2023-11-21T14:32:50;11.93;81.99
83102;SHT31;72973;51.784;4.660;2023-11-21T14:35:18;11.86;82.18
83102;SHT31;72973;51.784;4.660;2023-11-21T14:37:47;11.86;82.37
83102;SHT31;72973;51.784;4.660;2023-11-21T14:40:15;11.84;82.49
83102;SHT31;72973;51.784;4.660;2023-11-21T14:42:44;11.75;82.94
83102;SHT31;72973;51.784;4.660;2023-11-21T14:45:15;11.79;83.27
83102;SHT31;72973;51.784;4.660;2023-11-21T14:47:48;11.91;82.68
83102;SHT31;72973;51.784;4.660;2023-11-21T14:50:30;11.86;82.34
83102;SHT31;72973;51.784;4.660;2023-11-21T14:53:32;11.80;82.68
83102;SHT31;72973;51.784;4.660;2023-11-21T14:56:23;11.70;83.20
83102;SHT31;72973;51.784;4.660;2023-11-21T14:59:01;11.76;82.53
83102;SHT31;72973;51.784;4.660;2023-11-21T15:01:46;11.65;82.73
83102;SHT31;72973;51.784;4.660;2023-11-21T15:04:23;11.63;83.10
83102;SHT31;72973;51.784;4.660;2023-11-21T15:09:30;11.56;82.84
83102;SHT31;72973;51.784;4.660;2023-11-21T15:12:13;11.36;83.54
83102;SHT31;72973;51.784;4.660;2023-11-21T15:14:51;11.34;84.00
83102;SHT31;72973;51.784;4.660;2023-11-21T15:17:24;11.32;83.53
83102;SHT31;72973;51.784;4.660;2023-11-21T15:19:54;11.38;84.01
83102;SHT31;72973;51.784;4.660;2023-11-21T15:22:22;11.38;83.45
83102;SHT31;72973;51.784;4.660;2023-11-21T15:24:51;11.29;83.48
83102;SHT31;72973;51.784;4.660;2023-11-21T15:27:22;11.27;83.76
83102;SHT31;72973;51.784;4.660;2023-11-21T15:29:50;11.40;83.83
83102;SHT31;72973;51.784;4.660;2023-11-21T15:32:19;11.42;83.43
83102;SHT31;72973;51.784;4.660;2023-11-21T15:34:47;11.49;82.84
83102;SHT31;72973;51.784;4.660;2023-11-21T15:37:15;11.48;83.10
83102;SHT31;72973;51.784;4.660;2023-11-21T15:39:43;11.48;82.67
83102;SHT31;72973;51.784;4.660;2023-11-21T15:42:13;11.42;82.46
83102;SHT31;72973;51.784;4.660;2023-11-21T15:44:42;11.40;82.80
83102;SHT31;72973;51.784;4.660;2023-11-21T15:47:17;11.35;82.82
83102;SHT31;72973;51.784;4.660;2023-11-21T15:49:47;11.34;82.64
83102;SHT31;72973;51.784;4.660;2023-11-21T15:52:20;11.32;82.44
83102;SHT31;72973;51.784;4.660;2023-11-21T15:54:48;11.25;81.98
83102;SHT31;72973;51.784;4.660;2023-11-21T15:57:18;11.22;82.17
83102;SHT31;72973;51.784;4.660;2023-11-21T15:59:48;11.15;82.54
83102;SHT31;72973;51.784;4.660;2023-11-21T16:02:17;11.18;82.47
83102;SHT31;72973;51.784;4.660;2023-11-21T16:04:46;11.27;82.05
83102;SHT31;72973;51.784;4.660;2023-11-21T16:07:16;11.29;81.81
83102;SHT31;72973;51.784;4.660;2023-11-21T16:09:45;11.18;81.81
83102;SHT31;72973;51.784;4.660;2023-11-21T16:12:14;11.17;81.91
83102;SHT31;72973;51.784;4.660;2023-11-21T16:14:45;11.18;81.67
83102;SHT31;72973;51.784;4.660;2023-11-21T16:17:16;11.22;81.79
83102;SHT31;72973;51.784;4.660;2023-11-21T16:19:51;11.21;81.50
83102;SHT31;72973;51.784;4.660;2023-11-21T16:22:25;11.25;81.97
83102;SHT31;72973;51.784;4.660;2023-11-21T16:24:57;11.21;81.62
83102;SHT31;72973;51.784;4.660;2023-11-21T16:27:25;11.19;81.66
83102;SHT31;72973;51.784;4.660;2023-11-21T16:29:54;11.18;81.68